Time;durP1;ratioP1;P1;durP2;ratioP2;P2;SDS_P1;SDS_P2;PMS_P1;PMS_P2;Temp;Humidity;BMP_temperature;BMP_pressure;BME280_temperature;BME280_humidity;BME280_pressure;Samples;Min_cycle;Max_cycle;Signal;HPM_P1;HPM_P2
2022/08/17 00:02:04;;;;;;;10.93;8.93;;;23.90;65.20;;;;;;5004613;28;20107;-65
2022/08/17 00:04:29;;;;;;;7.30;6.47;;;23.90;65.20;;;;;;5005629;28;20033;-67
2022/08/17 00:06:56;;;;;;;9.27;8.38;;;23.90;65.00;;;;;;5005747;28;20018;-66
2022/08/17 00:09:21;;;;;;;8.68;7.82;;;23.90;64.90;;;;;;5004216;28;20033;-67
2022/08/17 00:11:48;;;;;;;8.63;7.78;;;23.90;64.90;;;;;;5004570;28;20075;-67
2022/08/17 00:14:18;;;;;;;8.30;7.50;;;23.90;64.90;;;;;;5008975;28;20029;-67
2022/08/17 00:16:48;;;;;;;8.95;6.97;;;23.90;64.80;;;;;;5005726;28;20033;-66
2022/08/17 00:19:16;;;;;;;8.05;7.25;;;24.00;64.70;;;;;;5008664;28;20104;-67
2022/08/17 00:21:45;;;;;;;7.07;6.32;;;24.00;64.50;;;;;;5022494;28;20427;-68
2022/08/17 00:24:11;;;;;;;6.75;6.05;;;23.90;64.40;;;;;;5018569;28;20030;-67
2022/08/17 00:26:37;;;;;;;8.32;7.43;;;24.00;64.40;;;;;;5007956;28;20091;-66
2022/08/17 00:29:03;;;;;;;9.07;7.85;;;24.00;64.40;;;;;;5006398;28;20061;-66
2022/08/17 00:31:29;;;;;;;9.18;8.27;;;23.90;64.80;;;;;;5010033;28;20026;-67
2022/08/17 00:33:54;;;;;;;8.02;7.18;;;23.80;65.00;;;;;;5006946;28;20504;-67
2022/08/17 00:36:22;;;;;;;9.15;8.15;;;23.80;65.30;;;;;;5008803;28;20092;-66
2022/08/17 00:38:48;;;;;;;11.52;8.48;;;23.80;65.40;;;;;;5008412;28;20033;-67
2022/08/17 00:41:19;;;;;;;8.00;6.72;;;23.80;65.40;;;;;;5005122;28;20042;-66
2022/08/17 00:43:49;;;;;;;9.13;8.23;;;23.80;65.40;;;;;;5010059;28;20228;-67
2022/08/17 00:46:18;;;;;;;9.55;8.65;;;23.80;65.70;;;;;;5000867;28;20046;-67
2022/08/17 00:48:44;;;;;;;9.00;8.10;;;23.70;65.90;;;;;;5010908;28;20033;-66
2022/08/17 00:51:29;;;;;;;9.93;8.15;;;23.70;65.80;;;;;;5009912;28;20118;-67
2022/08/17 00:54:05;;;;;;;10.82;9.50;;;23.70;65.80;;;;;;5004867;28;20071;-66
2022/08/17 00:56:36;;;;;;;10.15;8.48;;;23.70;66.20;;;;;;5007363;28;20029;-66
2022/08/17 00:59:03;;;;;;;12.07;10.70;;;23.60;66.30;;;;;;5011202;28;20068;-67
2022/08/17 01:01:30;;;;;;;11.10;9.90;;;23.60;66.50;;;;;;5020799;28;20461;-67
2022/08/17 01:03:56;;;;;;;9.60;8.70;;;23.50;66.50;;;;;;5027650;28;20021;-67
2022/08/17 01:06:23;;;;;;;9.43;8.27;;;23.60;66.60;;;;;;5013124;28;20014;-68
2022/08/17 01:08:50;;;;;;;13.27;9.95;;;23.50;66.60;;;;;;5006020;28;20022;-66
2022/08/17 01:11:16;;;;;;;10.23;8.68;;;23.50;66.90;;;;;;5016984;28;20018;-67
2022/08/17 01:13:43;;;;;;;12.02;10.80;;;23.40;66.90;;;;;;5019116;28;20040;-67
2022/08/17 01:16:16;;;;;;;10.68;9.57;;;23.40;66.90;;;;;;5041791;28;20469;-66
2022/08/17 01:18:44;;;;;;;11.95;10.73;;;23.40;67.00;;;;;;5035013;28;20062;-67
2022/08/17 01:21:19;;;;;;;10.48;9.48;;;23.30;67.20;;;;;;5033443;28;20083;-67
2022/08/17 01:23:44;;;;;;;9.23;8.10;;;23.30;67.30;;;;;;5033047;28;20025;-67
2022/08/17 01:26:10;;;;;;;11.88;10.63;;;23.30;67.10;;;;;;5016975;28;20033;-67
2022/08/17 01:28:38;;;;;;;10.57;9.30;;;23.30;67.30;;;;;;5013384;28;20055;-66
2022/08/17 01:31:06;;;;;;;10.45;9.45;;;23.30;67.20;;;;;;5012852;28;20026;-68
2022/08/17 01:33:32;;;;;;;10.40;9.27;;;23.30;67.30;;;;;;5013123;28;20022;-68
2022/08/17 01:35:59;;;;;;;9.63;8.73;;;23.20;67.30;;;;;;5011451;28;20503;-68
2022/08/17 01:38:30;;;;;;;10.93;9.70;;;23.20;67.20;;;;;;5012988;28;20500;-67
2022/08/17 01:41:03;;;;;;;13.35;11.15;;;23.20;67.20;;;;;;5013022;28;20114;-67
2022/08/17 01:43:34;;;;;;;9.93;8.60;;;23.20;67.10;;;;;;5012689;28;20033;-66
2022/08/17 01:46:01;;;;;;;8.23;6.80;;;23.30;66.80;;;;;;5012744;28;20025;-67
2022/08/17 01:48:32;;;;;;;8.73;7.90;;;23.30;66.50;;;;;;5012698;28;20033;-67
2022/08/17 01:50:59;;;;;;;11.70;10.43;;;23.40;66.30;;;;;;5012630;28;20065;-67
2022/08/17 01:53:48;;;;;;;9.80;8.88;;;23.40;66.70;;;;;;5012448;28;20022;-67
2022/08/17 01:56:17;;;;;;;9.65;8.73;;;23.30;66.80;;;;;;5012403;28;20026;-67
2022/08/17 01:58:42;;;;;;;9.00;8.10;;;23.30;66.80;;;;;;5011904;28;20021;-68
2022/08/17 02:01:09;;;;;;;8.98;8.07;;;23.30;66.70;;;;;;5012448;28;20018;-68
2022/08/17 02:03:37;;;;;;;8.13;7.32;;;23.30;66.60;;;;;;5012154;28;20105;-67
2022/08/17 02:06:04;;;;;;;8.75;7.40;;;23.30;66.60;;;;;;5012144;28;20068;-66
2022/08/17 02:08:34;;;;;;;9.10;8.30;;;23.30;66.60;;;;;;5011947;28;20084;-66
2022/08/17 02:11:09;;;;;;;10.60;9.50;;;23.20;66.70;;;;;;5012306;28;20022;-67
2022/08/17 02:13:34;;;;;;;10.65;9.55;;;23.20;66.90;;;;;;5011890;28;20083;-68
2022/08/17 02:16:00;;;;;;;9.90;8.80;;;23.10;67.00;;;;;;5011974;28;20026;-67
2022/08/17 02:18:26;;;;;;;10.40;9.35;;;23.10;67.10;;;;;;5011679;28;20026;-68
2022/08/17 02:20:52;;;;;;;11.30;10.20;;;23.10;67.10;;;;;;5010791;28;20026;-67
2022/08/17 02:23:21;;;;;;;11.27;10.18;;;23.00;67.30;;;;;;5010922;28;20508;-67
2022/08/17 02:25:47;;;;;;;11.45;10.25;;;23.00;67.40;;;;;;5011650;28;20032;-67
2022/08/17 02:28:14;;;;;;;11.93;10.73;;;22.90;67.60;;;;;;5011984;28;20026;-65
2022/08/17 02:30:40;;;;;;;10.48;9.38;;;22.90;67.70;;;;;;5011836;28;20443;-66
2022/08/17 02:33:07;;;;;;;11.10;10.05;;;22.80;67.90;;;;;;5011687;28;20542;-67
2022/08/17 02:35:33;;;;;;;13.90;12.45;;;22.80;68.10;;;;;;5011379;28;20022;-67
2022/08/17 02:38:00;;;;;;;12.88;11.07;;;22.70;68.40;;;;;;5011643;28;20439;-67
2022/08/17 02:40:26;;;;;;;10.27;9.25;;;22.70;68.50;;;;;;5011486;28;20388;-66
2022/08/17 02:42:52;;;;;;;10.65;9.55;;;22.60;68.40;;;;;;5011428;28;20059;-67
2022/08/17 02:45:21;;;;;;;12.70;11.38;;;22.60;68.40;;;;;;5011344;28;20025;-67
2022/08/17 02:47:49;;;;;;;10.30;9.27;;;22.60;68.50;;;;;;5011545;28;20026;-66
2022/08/17 02:50:16;;;;;;;10.52;9.50;;;22.60;68.40;;;;;;5011320;28;20109;-67
2022/08/17 02:52:44;;;;;;;9.68;8.68;;;22.50;68.30;;;;;;5011405;28;20022;-67
2022/08/17 02:55:24;;;;;;;10.55;9.43;;;22.50;68.50;;;;;;5011258;28;20067;-68
2022/08/17 02:57:50;;;;;;;11.27;9.40;;;22.50;68.50;;;;;;5011356;28;20053;-68
2022/08/17 03:00:27;;;;;;;10.48;8.73;;;22.50;68.30;;;;;;5011355;28;20487;-68
2022/08/17 03:02:55;;;;;;;11.45;9.05;;;22.50;68.30;;;;;;5011355;28;20113;-65
2022/08/17 03:05:23;;;;;;;10.98;9.88;;;22.50;68.20;;;;;;5011020;28;20025;-66
2022/08/17 03:07:49;;;;;;;12.13;10.85;;;22.50;68.20;;;;;;5011426;28;20461;-66
2022/08/17 03:10:16;;;;;;;11.48;10.38;;;22.40;68.60;;;;;;5009588;28;20432;-66
2022/08/17 03:12:43;;;;;;;12.82;11.60;;;22.40;68.50;;;;;;5011307;28;20014;-65
2022/08/17 03:15:20;;;;;;;10.63;9.60;;;22.50;68.80;;;;;;5011152;28;20026;-66
2022/08/17 03:17:45;;;;;;;9.98;8.65;;;22.40;68.70;;;;;;5011022;28;20029;-66
2022/08/17 03:20:12;;;;;;;10.27;9.27;;;22.50;68.60;;;;;;5010990;28;20101;-65
2022/08/17 03:22:45;;;;;;;10.18;9.18;;;22.50;68.40;;;;;;5009637;28;20029;-65
2022/08/17 03:25:15;;;;;;;10.82;9.25;;;22.50;68.40;;;;;;5010828;28;20026;-66
2022/08/17 03:27:41;;;;;;;15.82;14.23;;;22.50;68.40;;;;;;5009375;28;20054;-66
2022/08/17 03:30:09;;;;;;;11.40;9.63;;;22.50;68.90;;;;;;5010872;28;20446;-66
2022/08/17 03:32:46;;;;;;;14.05;12.55;;;22.50;68.80;;;;;;5008955;28;20045;-66
2022/08/17 03:35:14;;;;;;;12.95;11.57;;;22.50;68.90;;;;;;5010538;28;20030;-65
2022/08/17 03:37:39;;;;;;;9.70;8.70;;;22.50;69.20;;;;;;5010236;28;20374;-67
2022/08/17 03:40:06;;;;;;;13.63;12.32;;;22.40;68.90;;;;;;5010538;28;20030;-68
2022/08/17 03:42:34;;;;;;;12.23;10.82;;;22.50;69.30;;;;;;5010378;28;20688;-67
2022/08/17 03:45:01;;;;;;;10.13;9.07;;;22.40;69.20;;;;;;5010414;28;20053;-66
2022/08/17 03:58:25;;;;;;;10.85;9.75;;;22.50;68.90;;;;;;5010618;28;20510;-67
2022/08/17 04:00:51;;;;;;;9.30;8.40;;;22.60;68.70;;;;;;5010315;28;20037;-67
2022/08/17 04:03:17;;;;;;;15.30;13.73;;;22.60;68.60;;;;;;5010458;28;20034;-66
2022/08/17 04:05:43;;;;;;;13.43;11.30;;;22.50;68.90;;;;;;5010097;28;20473;-66
2022/08/17 04:08:09;;;;;;;9.38;8.48;;;22.50;69.00;;;;;;5009039;28;20018;-67
2022/08/17 04:10:36;;;;;;;8.25;7.47;;;22.50;69.00;;;;;;5010200;28;20026;-67
2022/08/17 04:13:03;;;;;;;12.98;11.57;;;22.60;68.60;;;;;;5010372;28;20022;-67
2022/08/17 04:15:29;;;;;;;10.45;9.32;;;22.60;68.70;;;;;;5010066;28;20034;-66
2022/08/17 04:17:55;;;;;;;11.00;9.25;;;22.50;68.60;;;;;;5010337;28;20393;-66
2022/08/17 04:20:22;;;;;;;9.18;8.23;;;22.60;68.50;;;;;;5010338;28;20030;-67
2022/08/17 04:22:58;;;;;;;14.02;12.63;;;22.60;68.10;;;;;;5014248;28;20026;-66
2022/08/17 04:25:26;;;;;;;12.85;11.25;;;22.60;67.90;;;;;;5014052;28;20029;-66
2022/08/17 04:27:52;;;;;;;12.88;10.57;;;22.60;68.70;;;;;;5014115;28;20405;-67
2022/08/17 04:30:18;;;;;;;12.77;10.45;;;22.50;68.00;;;;;;5013952;28;20185;-67
2022/08/17 04:32:57;;;;;;;10.52;8.68;;;22.50;68.10;;;;;;5014022;28;20689;-66
2022/08/17 04:35:28;;;;;;;10.15;9.00;;;22.50;68.00;;;;;;5013796;28;20029;-66
2022/08/17 04:37:54;;;;;;;9.17;7.33;;;22.50;67.70;;;;;;5014034;28;20025;-66
2022/08/17 04:43:08;;;;;;;11.80;10.60;;;22.60;67.30;;;;;;5014053;28;20076;-67
2022/08/17 04:45:39;;;;;;;10.52;8.82;;;22.70;67.00;;;;;;5013672;28;20524;-67
2022/08/17 04:48:04;;;;;;;8.32;7.40;;;22.60;67.00;;;;;;5013584;28;20025;-67
2022/08/17 04:50:30;;;;;;;9.38;8.40;;;22.70;66.80;;;;;;5013827;28;20025;-66
2022/08/17 04:52:55;;;;;;;9.10;7.47;;;22.70;66.60;;;;;;5013381;28;20492;-68
2022/08/17 04:55:21;;;;;;;8.00;7.20;;;22.80;66.40;;;;;;5013215;28;20029;-67
2022/08/17 04:57:46;;;;;;;7.55;6.75;;;22.80;66.20;;;;;;5013448;28;20473;-66
2022/08/17 05:00:12;;;;;;;7.72;6.93;;;22.90;66.10;;;;;;5013608;28;20034;-66
2022/08/17 05:02:49;;;;;;;8.32;7.35;;;22.90;65.90;;;;;;5013112;28;20026;-67
2022/08/17 05:05:37;;;;;;;7.80;7.00;;;23.00;65.80;;;;;;5013299;28;20030;-66
2022/08/17 05:08:05;;;;;;;7.95;7.15;;;23.10;65.60;;;;;;5013286;28;20029;-66
2022/08/17 05:10:35;;;;;;;8.65;7.78;;;23.00;65.40;;;;;;5013416;28;20038;-67
2022/08/17 05:13:04;;;;;;;9.88;7.22;;;23.00;65.40;;;;;;5013266;28;20021;-67
2022/08/17 05:15:31;;;;;;;8.60;7.70;;;23.00;65.40;;;;;;5013216;28;20030;-67
2022/08/17 05:17:57;;;;;;;9.90;8.73;;;23.00;65.40;;;;;;5012918;28;20022;-66
2022/08/17 05:20:23;;;;;;;9.57;8.50;;;23.00;65.50;;;;;;5013210;28;20025;-67
2022/08/17 05:22:54;;;;;;;12.38;10.95;;;23.00;65.70;;;;;;5011990;28;20377;-66
2022/08/17 05:25:27;;;;;;;9.57;8.60;;;22.90;65.90;;;;;;5012863;28;20520;-66
2022/08/17 05:27:53;;;;;;;9.77;8.77;;;22.80;66.10;;;;;;5013202;28;20032;-66
2022/08/17 05:30:19;;;;;;;8.50;7.72;;;22.80;66.10;;;;;;5012986;28;20500;-66
2022/08/17 05:32:55;;;;;;;9.18;8.27;;;22.80;66.10;;;;;;5012025;28;20034;-66
2022/08/17 05:35:22;;;;;;;8.15;7.40;;;22.80;66.00;;;;;;5013052;28;20116;-67
2022/08/17 05:37:48;;;;;;;9.70;8.60;;;22.80;65.90;;;;;;5013213;28;20105;-66
2022/08/17 05:40:15;;;;;;;9.45;8.27;;;22.90;66.00;;;;;;5012875;28;20388;-65
2022/08/17 05:42:41;;;;;;;9.00;8.10;;;22.80;66.00;;;;;;5012816;28;20041;-65
2022/08/17 05:45:07;;;;;;;9.27;7.20;;;22.80;66.00;;;;;;5012534;28;20104;-66
2022/08/17 05:47:33;;;;;;;8.98;7.75;;;22.90;66.00;;;;;;5012737;28;20021;-67
2022/08/17 05:50:00;;;;;;;8.90;8.00;;;22.90;66.00;;;;;;5012599;28;20034;-66
2022/08/17 05:52:37;;;;;;;9.88;8.55;;;22.90;65.90;;;;;;5012660;28;20022;-66
2022/08/17 05:55:19;;;;;;;9.40;8.50;;;22.90;66.00;;;;;;5012350;28;20144;-67
2022/08/17 05:58:15;;;;;;;9.60;8.13;;;22.90;66.10;;;;;;5012400;28;20022;-66
2022/08/17 06:00:46;;;;;;;9.27;8.05;;;22.90;66.10;;;;;;5012343;28;20045;-66
2022/08/17 06:03:43;;;;;;;10.00;9.00;;;22.90;66.10;;;;;;5012267;28;20030;-67
2022/08/17 06:06:40;;;;;;;8.85;7.95;;;22.80;66.30;;;;;;5012110;28;20081;-67
2022/08/17 06:09:22;;;;;;;8.82;7.93;;;22.80;66.40;;;;;;5012252;28;20026;-67
2022/08/17 06:12:25;;;;;;;8.43;7.57;;;22.90;67.00;;;;;;5012108;28;20092;-67
2022/08/17 06:15:26;;;;;;;9.55;8.63;;;22.80;66.40;;;;;;5012094;28;20033;-66
2022/08/17 06:17:59;;;;;;;10.45;9.35;;;22.80;66.60;;;;;;5009246;28;20054;-67
2022/08/17 06:20:30;;;;;;;9.57;8.25;;;22.80;66.80;;;;;;5011853;28;20064;-67
2022/08/17 06:23:03;;;;;;;9.88;8.77;;;22.90;67.00;;;;;;5011825;28;20053;-69
2022/08/17 06:25:33;;;;;;;9.00;7.80;;;23.00;66.60;;;;;;5008820;28;20533;-67
2022/08/17 06:28:07;;;;;;;11.88;10.68;;;23.20;66.40;;;;;;5011902;28;20092;-66
2022/08/17 06:30:45;;;;;;;10.07;9.00;;;23.20;66.40;;;;;;5008808;28;20385;-67
2022/08/17 06:33:22;;;;;;;12.20;10.48;;;23.10;66.50;;;;;;5011585;28;20037;-67
2022/08/17 06:35:58;;;;;;;12.65;10.73;;;23.10;66.70;;;;;;5008690;28;20080;-67
2022/08/17 06:39:09;;;;;;;10.88;9.73;;;23.10;66.90;;;;;;5011547;28;20018;-67
2022/08/17 06:42:00;;;;;;;12.70;10.73;;;23.00;67.10;;;;;;5003004;28;20049;-67
2022/08/17 06:44:42;;;;;;;9.52;8.55;;;23.40;66.80;;;;;;5010039;28;20030;-68
2022/08/17 06:47:19;;;;;;;8.30;7.20;;;23.60;66.40;;;;;;4999745;28;20026;-66
2022/08/17 06:50:13;;;;;;;10.75;9.52;;;24.50;64.50;;;;;;4991719;28;20021;-66
2022/08/17 06:52:48;;;;;;;10.40;9.10;;;25.10;63.00;;;;;;4990361;28;20046;-66
2022/08/17 06:55:28;;;;;;;11.77;9.73;;;25.10;63.20;;;;;;4991596;28;20544;-67
2022/08/17 06:58:01;;;;;;;12.27;10.98;;;24.60;63.40;;;;;;5003723;28;20057;-66
2022/08/17 07:00:32;;;;;;;11.15;10.05;;;24.10;64.70;;;;;;5011222;28;20028;-67
2022/08/17 07:03:05;;;;;;;12.07;10.48;;;24.10;65.60;;;;;;5011332;28;20385;-66
2022/08/17 07:05:40;;;;;;;13.32;12.00;;;24.80;64.20;;;;;;5010977;28;20088;-66
2022/08/17 07:08:32;;;;;;;10.77;9.35;;;24.60;64.00;;;;;;5011218;28;20056;-66
2022/08/17 07:11:01;;;;;;;12.52;10.75;;;24.60;64.40;;;;;;5011161;28;20578;-66
2022/08/17 07:13:39;;;;;;;11.32;10.23;;;25.00;64.00;;;;;;5009847;28;20116;-67
2022/08/17 07:16:31;;;;;;;14.45;11.10;;;24.80;63.90;;;;;;5010856;28;20053;-66
2022/08/17 07:18:58;;;;;;;13.70;11.85;;;24.40;64.80;;;;;;5010931;28;20026;-66
2022/08/17 07:21:56;;;;;;;12.63;11.10;;;24.10;65.80;;;;;;5010975;28;20030;-68
2022/08/17 07:24:43;;;;;;;12.02;10.73;;;23.80;66.80;;;;;;5010761;28;20642;-67
2022/08/17 07:27:26;;;;;;;12.43;10.68;;;23.70;67.60;;;;;;5010684;28;20108;-66
2022/08/17 07:29:57;;;;;;;11.23;10.02;;;23.60;68.10;;;;;;5010672;28;20018;-66
2022/08/17 07:32:30;;;;;;;11.48;10.27;;;23.60;68.40;;;;;;5010556;28;20030;-66
2022/08/17 07:35:07;;;;;;;11.30;9.00;;;23.50;68.50;;;;;;5010801;28;20018;-67
2022/08/17 07:37:33;;;;;;;13.65;12.23;;;23.50;68.90;;;;;;5010523;28;20053;-66
2022/08/17 07:40:18;;;;;;;12.82;10.75;;;23.40;69.30;;;;;;5010636;28;20014;-66
2022/08/17 07:43:05;;;;;;;13.48;12.07;;;23.40;69.70;;;;;;5010578;28;20045;-67
2022/08/17 07:48:39;;;;;;;16.05;14.15;;;23.30;70.30;;;;;;5008231;28;20069;-67
2022/08/17 07:51:16;;;;;;;14.07;12.60;;;23.20;71.10;;;;;;5008151;28;20048;-67
2022/08/17 07:53:44;;;;;;;14.48;12.98;;;23.20;71.50;;;;;;5009696;28;20038;-67
2022/08/17 07:56:09;;;;;;;13.63;11.93;;;23.20;71.50;;;;;;5010542;28;20370;-67
2022/08/17 07:58:35;;;;;;;12.32;10.50;;;23.10;71.70;;;;;;5010510;28;20080;-66
2022/08/17 08:01:17;;;;;;;11.48;10.32;;;23.20;71.80;;;;;;5010627;28;20686;-66
2022/08/17 08:03:44;;;;;;;14.75;12.98;;;23.20;71.80;;;;;;5010395;28;20022;-66
2022/08/17 08:06:20;;;;;;;13.82;12.43;;;23.20;71.80;;;;;;5010381;28;20026;-65
2022/08/17 08:08:53;;;;;;;12.63;11.32;;;23.20;71.90;;;;;;5010281;28;20018;-66
2022/08/17 08:11:33;;;;;;;12.32;11.02;;;23.20;72.00;;;;;;5010565;28;20029;-66
2022/08/17 08:14:20;;;;;;;12.25;10.93;;;23.30;72.00;;;;;;5010187;28;20040;-66
2022/08/17 08:17:02;;;;;;;15.52;11.18;;;23.40;71.90;;;;;;5010413;28;20056;-66
2022/08/17 08:19:29;;;;;;;13.75;12.05;;;23.40;71.60;;;;;;5010106;28;20042;-66
2022/08/17 08:22:10;;;;;;;17.45;13.23;;;23.40;71.80;;;;;;5010221;28;20500;-66
2022/08/17 08:25:01;;;;;;;13.00;11.70;;;23.50;71.90;;;;;;5009955;28;20030;-66
2022/08/17 08:27:42;;;;;;;12.70;11.40;;;23.50;71.80;;;;;;5009936;28;20109;-66
2022/08/17 08:30:13;;;;;;;13.85;11.57;;;23.60;71.60;;;;;;4998759;28;20018;-66
2022/08/17 08:33:07;;;;;;;11.90;10.40;;;23.70;71.50;;;;;;4998718;28;20022;-67
2022/08/17 08:35:57;;;;;;;12.98;11.07;;;23.80;71.10;;;;;;4994580;28;20041;-66
2022/08/17 08:38:37;;;;;;;12.18;10.88;;;23.90;70.90;;;;;;4999381;28;20109;-65
2022/08/17 08:41:41;;;;;;;14.95;13.10;;;24.00;70.50;;;;;;4998714;28;20026;-66
2022/08/17 08:44:22;;;;;;;13.93;11.85;;;24.10;70.20;;;;;;5010225;28;20036;-66
2022/08/17 08:47:06;;;;;;;11.45;10.30;;;24.20;69.70;;;;;;5011442;28;20041;-66
2022/08/17 08:50:02;;;;;;;11.63;10.25;;;24.40;69.40;;;;;;5010066;28;20118;-66
2022/08/17 08:52:50;;;;;;;11.48;10.27;;;24.50;68.70;;;;;;5009223;28;20054;-66
2022/08/17 08:55:27;;;;;;;11.85;10.57;;;24.60;68.30;;;;;;5008459;28;20030;-66
2022/08/17 08:58:01;;;;;;;13.10;10.65;;;24.60;68.10;;;;;;5010290;28;20415;-67
2022/08/17 09:00:34;;;;;;;9.65;8.60;;;24.60;68.00;;;;;;5005286;28;20025;-65
2022/08/17 09:03:23;;;;;;;9.15;8.23;;;24.70;67.90;;;;;;5006614;28;20022;-67
2022/08/17 09:06:02;;;;;;;9.23;8.32;;;24.80;67.80;;;;;;5006226;28;20048;-66
2022/08/17 09:08:40;;;;;;;9.90;8.82;;;24.90;67.20;;;;;;5008709;28;20096;-65
2022/08/17 09:11:08;;;;;;;9.57;8.68;;;25.00;67.00;;;;;;5014767;28;20053;-67
2022/08/17 09:13:49;;;;;;;10.63;9.52;;;25.00;66.90;;;;;;5018593;28;20819;-66
2022/08/17 09:16:21;;;;;;;14.27;10.02;;;25.10;66.80;;;;;;5011454;28;20056;-66
2022/08/17 09:18:54;;;;;;;10.57;8.32;;;25.10;66.60;;;;;;5013892;28;20032;-66
2022/08/17 09:21:33;;;;;;;10.80;9.80;;;25.10;66.60;;;;;;5013864;28;20018;-67
2022/08/17 09:24:08;;;;;;;11.25;9.30;;;25.10;66.40;;;;;;5011627;28;20559;-67
2022/08/17 09:26:47;;;;;;;10.50;9.48;;;25.10;66.30;;;;;;5012937;28;20080;-67
2022/08/17 09:29:15;;;;;;;11.73;10.52;;;25.10;66.40;;;;;;5011751;28;20542;-67
2022/08/17 09:32:13;;;;;;;9.88;8.88;;;25.00;66.30;;;;;;5013527;28;20022;-67
2022/08/17 09:34:49;;;;;;;10.57;9.48;;;25.00;66.40;;;;;;5010461;28;20044;-66
2022/08/17 09:37:23;;;;;;;12.30;10.40;;;25.00;66.30;;;;;;5011522;28;20157;-67
2022/08/17 09:40:13;;;;;;;10.98;9.88;;;24.90;66.20;;;;;;5013714;28;20097;-66
2022/08/17 09:42:48;;;;;;;10.00;9.00;;;25.00;66.00;;;;;;5013945;28;20052;-67
2022/08/17 09:45:17;;;;;;;11.75;10.10;;;25.10;65.80;;;;;;5011218;28;20084;-67
2022/08/17 09:47:50;;;;;;;10.27;9.27;;;25.20;65.60;;;;;;5010819;28;20495;-67
2022/08/17 09:50:20;;;;;;;12.50;11.20;;;25.20;65.40;;;;;;5014476;28;20017;-66
2022/08/17 09:52:46;;;;;;;13.38;11.98;;;25.20;65.30;;;;;;5009874;28;20918;-66
2022/08/17 09:55:12;;;;;;;12.65;10.48;;;25.20;65.10;;;;;;5010612;28;20021;-66
2022/08/17 09:58:03;;;;;;;10.70;8.85;;;25.10;65.30;;;;;;5010246;28;20026;-66
2022/08/17 10:00:35;;;;;;;11.95;10.75;;;25.20;65.20;;;;;;5007819;28;20447;-67
2022/08/17 10:03:10;;;;;;;14.35;12.85;;;25.20;65.10;;;;;;5006621;28;20029;-67
2022/08/17 10:05:56;;;;;;;13.60;12.15;;;25.10;65.10;;;;;;5007683;28;20042;-66
2022/08/17 10:08:57;;;;;;;12.20;10.77;;;25.10;65.20;;;;;;5008962;28;20547;-66
2022/08/17 10:14:46;;;;;;;10.27;9.18;;;25.10;65.30;;;;;;5009192;28;20083;-67
2022/08/17 10:17:25;;;;;;;9.90;8.95;;;25.20;65.20;;;;;;5007733;28;20018;-68
2022/08/17 10:20:10;;;;;;;11.35;9.90;;;25.40;65.10;;;;;;5007220;28;20045;-67
2022/08/17 10:28:19;;;;;;;11.68;10.18;;;25.50;64.10;;;;;;5007856;28;20028;-67
2022/08/17 10:30:50;;;;;;;10.23;9.10;;;25.60;64.20;;;;;;5009904;28;20019;-66
2022/08/17 10:33:23;;;;;;;10.67;9.57;;;25.60;64.30;;;;;;5009147;28;20076;-67
2022/08/17 10:35:49;;;;;;;11.95;10.65;;;25.70;64.20;;;;;;5007249;28;20046;-67
2022/08/17 10:38:59;;;;;;;10.60;9.40;;;25.70;64.10;;;;;;5008578;28;20058;-67
2022/08/17 10:41:39;;;;;;;10.02;8.63;;;25.70;64.10;;;;;;5004987;28;20072;-67
2022/08/17 10:44:25;;;;;;;8.88;7.97;;;25.80;64.10;;;;;;5008176;28;20117;-67
2022/08/17 10:47:13;;;;;;;9.38;8.48;;;25.80;63.90;;;;;;5006946;28;20327;-66
2022/08/17 10:49:48;;;;;;;11.15;7.95;;;25.80;64.10;;;;;;5006945;28;20495;-66
2022/08/17 10:52:19;;;;;;;8.75;7.85;;;25.90;64.20;;;;;;5007045;28;20532;-66
2022/08/17 10:54:50;;;;;;;8.13;7.20;;;26.00;64.10;;;;;;5008598;28;20021;-67
2022/08/17 10:57:33;;;;;;;8.15;7.35;;;26.00;64.00;;;;;;5008472;28;20030;-67
2022/08/17 11:00:20;;;;;;;8.50;7.60;;;26.00;63.90;;;;;;5009586;28;20017;-68
2022/08/17 11:02:51;;;;;;;9.98;7.88;;;26.00;63.90;;;;;;5006590;28;20088;-67
2022/08/17 11:05:58;;;;;;;9.50;8.15;;;25.90;64.20;;;;;;5007753;28;20030;-67
2022/08/17 11:08:32;;;;;;;7.30;6.60;;;26.00;64.10;;;;;;5008804;28;20030;-67
2022/08/17 11:11:14;;;;;;;9.13;8.23;;;26.00;64.00;;;;;;5006629;28;20065;-67
2022/08/17 11:14:07;;;;;;;7.40;6.70;;;26.10;63.90;;;;;;5006245;28;20065;-67
2022/08/17 11:16:36;;;;;;;7.95;7.15;;;26.10;63.70;;;;;;5020355;28;20188;-67
2022/08/17 11:19:17;;;;;;;9.93;8.93;;;26.10;63.60;;;;;;5007201;28;20022;-67
2022/08/17 11:22:14;;;;;;;10.18;8.15;;;26.00;63.60;;;;;;5006754;28;20057;-68
2022/08/17 11:24:46;;;;;;;8.20;7.40;;;25.90;63.80;;;;;;4993479;28;20061;-68
2022/08/17 11:27:34;;;;;;;7.97;6.47;;;25.90;64.10;;;;;;5005704;28;20018;-67
2022/08/17 11:30:05;;;;;;;8.63;7.53;;;25.90;64.50;;;;;;5007084;28;20041;-67
2022/08/17 11:32:36;;;;;;;7.10;6.40;;;25.80;64.80;;;;;;5005638;28;20018;-67
2022/08/17 11:35:24;;;;;;;8.73;6.90;;;25.70;65.20;;;;;;5007490;28;20022;-67
2022/08/17 11:38:17;;;;;;;9.50;8.45;;;25.60;65.40;;;;;;5008004;28;20050;-67
2022/08/17 11:40:58;;;;;;;8.60;7.72;;;25.60;66.00;;;;;;5006166;28;20030;-66
2022/08/17 11:43:52;;;;;;;9.15;8.15;;;25.50;66.30;;;;;;5007692;28;20062;-66
2022/08/17 11:52:59;;;;;;;9.98;8.85;;;25.30;67.80;;;;;;5006515;28;20028;-66
2022/08/17 11:55:31;;;;;;;8.30;7.50;;;25.30;68.20;;;;;;5006921;28;20022;-66
2022/08/17 11:58:28;;;;;;;10.48;9.38;;;25.20;68.30;;;;;;5007196;28;20392;-66
2022/08/17 12:00:56;;;;;;;10.32;9.23;;;25.10;68.60;;;;;;5005255;28;20032;-66
2022/08/17 12:03:30;;;;;;;10.68;9.55;;;25.00;68.80;;;;;;5008689;28;20385;-66
2022/08/17 12:06:23;;;;;;;9.18;8.25;;;25.00;69.20;;;;;;5009496;28;20540;-66
2022/08/17 12:09:20;;;;;;;10.82;9.35;;;24.90;69.40;;;;;;5010003;28;20069;-67
2022/08/17 12:12:01;;;;;;;10.10;9.10;;;24.90;69.40;;;;;;5005286;28;20034;-66
2022/08/17 12:14:29;;;;;;;8.52;7.68;;;24.90;69.80;;;;;;5012291;28;20041;-66
2022/08/17 12:17:03;;;;;;;10.25;9.23;;;24.90;69.80;;;;;;5010395;28;20033;-67
2022/08/17 12:19:31;;;;;;;10.77;9.68;;;24.90;70.20;;;;;;5008160;28;20661;-67
2022/08/17 12:22:09;;;;;;;12.00;10.75;;;24.90;70.50;;;;;;5009052;28;20101;-68
2022/08/17 12:24:40;;;;;;;10.98;9.88;;;24.80;71.10;;;;;;5008359;28;20053;-66
2022/08/17 12:27:09;;;;;;;11.45;9.00;;;24.60;71.40;;;;;;5008450;28;20033;-66
2022/08/17 12:29:36;;;;;;;10.82;9.73;;;24.50;71.80;;;;;;5011229;28;20022;-66
2022/08/17 12:32:04;;;;;;;9.88;8.88;;;24.40;72.10;;;;;;5011241;28;20100;-67
2022/08/17 12:34:39;;;;;;;8.82;7.88;;;24.40;72.20;;;;;;5009249;28;20029;-66
2022/08/17 12:37:19;;;;;;;12.70;11.43;;;24.30;72.30;;;;;;5011558;28;20033;-66
2022/08/17 12:39:57;;;;;;;11.75;10.65;;;24.30;72.70;;;;;;5008620;28;20026;-66
2022/08/17 12:42:29;;;;;;;12.18;10.02;;;24.20;72.90;;;;;;5011277;28;20041;-66
2022/08/17 12:44:56;;;;;;;10.55;9.45;;;24.20;73.10;;;;;;5015776;28;20519;-66
2022/08/17 12:47:22;;;;;;;9.95;8.95;;;24.20;73.10;;;;;;5012320;28;20029;-67
2022/08/17 12:49:51;;;;;;;11.50;10.40;;;24.20;73.10;;;;;;5015978;28;20038;-67
2022/08/17 12:52:28;;;;;;;10.73;9.63;;;24.20;73.20;;;;;;5015960;28;20510;-68
2022/08/17 12:55:00;;;;;;;10.18;9.18;;;24.10;73.20;;;;;;5012151;28;20030;-67
2022/08/17 12:57:32;;;;;;;11.43;9.77;;;24.10;73.40;;;;;;5016023;28;20424;-66
2022/08/17 13:00:10;;;;;;;12.40;11.10;;;24.10;73.40;;;;;;5012075;28;20026;-66
2022/08/17 13:02:52;;;;;;;12.77;11.57;;;24.10;73.50;;;;;;5011686;28;20028;-66
2022/08/17 13:05:37;;;;;;;11.30;10.20;;;23.90;73.80;;;;;;5011803;28;20030;-66
2022/08/17 13:08:13;;;;;;;12.10;10.82;;;23.90;74.10;;;;;;5012243;28;20029;-66
2022/08/17 13:10:40;;;;;;;11.68;10.55;;;23.90;74.10;;;;;;5011388;28;20518;-67
2022/08/17 13:13:30;;;;;;;12.95;10.70;;;23.80;74.30;;;;;;5007894;28;20104;-66
2022/08/17 13:16:05;;;;;;;12.55;11.25;;;23.80;74.70;;;;;;5012253;28;20025;-67
2022/08/17 13:19:05;;;;;;;13.48;12.18;;;23.70;75.10;;;;;;5011836;28;20030;-67
2022/08/17 13:21:32;;;;;;;12.63;11.30;;;23.60;75.30;;;;;;5012642;28;20041;-66
2022/08/17 13:24:25;;;;;;;10.95;9.85;;;23.60;75.60;;;;;;5012192;28;20030;-67
2022/08/17 13:27:06;;;;;;;10.75;9.70;;;23.60;75.60;;;;;;5003826;28;20084;-67
2022/08/17 13:29:34;;;;;;;12.85;11.45;;;23.70;75.60;;;;;;5013463;28;20384;-66
2022/08/17 13:32:02;;;;;;;12.52;11.27;;;23.60;75.70;;;;;;5013057;28;20033;-66
2022/08/17 13:34:34;;;;;;;11.75;10.65;;;23.60;75.90;;;;;;5011529;28;20453;-67
2022/08/17 13:37:27;;;;;;;11.85;10.65;;;23.60;75.90;;;;;;5009982;28;20022;-67
2022/08/17 13:39:57;;;;;;;13.75;12.23;;;23.60;75.90;;;;;;5011321;28;20034;-66
2022/08/17 13:42:39;;;;;;;12.25;10.98;;;23.60;76.00;;;;;;5010984;28;20117;-66
2022/08/17 13:45:38;;;;;;;12.35;11.15;;;23.60;76.10;;;;;;5011063;28;20034;-67